Time;durP1;ratioP1;P1;durP2;ratioP2;P2;SDS_P1;SDS_P2;PMS_P1;PMS_P2;Temp;Humidity;BMP_temperature;BMP_pressure;BME280_temperature;BME280_humidity;BME280_pressure;Samples;Min_cycle;Max_cycle;Signal;HPM_P1;HPM_P2
2023/11/16 00:02:04;;;;;;;5.05;2.30;;;;;;;;;;5112525;28;20692;-57
2023/11/16 00:04:33;;;;;;;3.75;2.33;;;;;;;;;;5112352;28;20104;-57
2023/11/16 00:19:44;;;;;;;3.85;2.47;;;;;;;;;;5092284;28;20435;-57
2023/11/16 00:22:10;;;;;;;5.90;2.22;;;;;;;;;;5092865;28;20127;-57
2023/11/16 00:24:36;;;;;;;3.75;2.50;;;;;;;;;;5111703;28;20047;-57
2023/11/16 00:27:02;;;;;;;3.88;2.35;;;;;;;;;;5111995;28;20107;-57
2023/11/16 00:29:28;;;;;;;3.90;2.47;;;;;;;;;;5112055;28;20111;-57
2023/11/16 00:31:54;;;;;;;4.82;3.22;;;;;;;;;;5112303;28;20027;-57
2023/11/16 00:34:20;;;;;;;3.60;2.67;;;;;;;;;;5112155;28;20099;-57
2023/11/16 00:36:46;;;;;;;4.97;3.03;;;;;;;;;;5112161;28;20043;-57
2023/11/16 00:39:13;;;;;;;6.38;3.15;;;;;;;;;;5112135;28;20023;-57
2023/11/16 00:41:39;;;;;;;3.63;2.75;;;;;;;;;;5111829;28;20414;-57
2023/11/16 00:44:05;;;;;;;5.18;3.17;;;;;;;;;;5112271;28;20042;-57
2023/11/16 00:46:35;;;;;;;4.85;2.80;;;;;;;;;;5076394;28;20032;-57
2023/11/16 00:49:02;;;;;;;5.60;3.88;;;;;;;;;;5076614;28;20093;-57
2023/11/16 00:51:28;;;;;;;4.53;3.35;;;;;;;;;;5112025;28;20031;-57
2023/11/16 00:53:55;;;;;;;5.68;3.60;;;;;;;;;;5112077;28;20028;-57
2023/11/16 00:56:21;;;;;;;6.80;3.75;;;;;;;;;;5111856;28;20478;-57
2023/11/16 00:58:49;;;;;;;6.75;3.83;;;;;;;;;;5111957;28;20039;-57
2023/11/16 01:01:18;;;;;;;6.85;4.20;;;;;;;;;;5076547;28;20483;-57
2023/11/16 01:03:44;;;;;;;5.30;3.92;;;;;;;;;;5111918;28;20042;-57
2023/11/16 01:06:10;;;;;;;6.22;3.83;;;;;;;;;;5111622;28;20027;-57
2023/11/16 01:08:37;;;;;;;8.60;3.90;;;;;;;;;;5111757;28;20467;-57
2023/11/16 01:11:08;;;;;;;5.05;3.70;;;;;;;;;;5112078;28;20107;-57
2023/11/16 01:13:41;;;;;;;7.22;3.30;;;;;;;;;;5111899;28;20023;-57
2023/11/16 01:16:15;;;;;;;4.32;3.35;;;;;;;;;;5112129;28;20081;-57
2023/11/16 01:18:50;;;;;;;5.43;3.25;;;10.30;99.90;;;;;;5115173;28;20471;-57
2023/11/16 01:21:19;;;;;;;6.68;3.20;;;10.10;99.90;;;;;;5115589;28;20646;-58
2023/11/16 01:23:47;;;;;;;4.30;2.88;;;10.10;99.90;;;;;;5115406;28;20124;-57
2023/11/16 01:26:15;;;;;;;4.43;2.95;;;10.20;99.90;;;;;;5115749;28;20049;-57
2023/11/16 01:29:00;;;;;;;4.88;3.15;;;10.20;99.90;;;;;;5115591;28;20493;-57
2023/11/16 01:31:27;;;;;;;3.38;2.40;;;10.20;99.90;;;;;;5114717;28;20040;-56
2023/11/16 01:33:53;;;;;;;4.53;3.10;;;10.30;99.90;;;;;;5115620;28;20028;-57
2023/11/16 01:36:19;;;;;;;4.68;3.15;;;10.30;99.90;;;;;;5115299;28;20027;-56
2023/11/16 01:38:48;;;;;;;4.28;2.90;;;10.30;99.90;;;;;;5115123;28;20157;-57
2023/11/16 01:41:14;;;;;;;4.07;2.88;;;10.40;99.90;;;;;;5115150;28;20048;-57
2023/11/16 01:43:40;;;;;;;3.60;2.67;;;10.40;99.90;;;;;;5114722;28;20027;-57
2023/11/16 01:46:06;;;;;;;4.38;2.65;;;10.40;99.90;;;;;;5115305;28;20110;-57
2023/11/16 01:48:42;;;;;;;3.33;2.28;;;10.40;99.90;;;;;;5115255;28;20035;-57
2023/11/16 01:51:11;;;;;;;3.42;2.33;;;10.30;99.90;;;;;;5114796;28;20058;-57
2023/11/16 01:53:43;;;;;;;5.25;2.47;;;10.30;99.90;;;;;;5115497;28;20040;-57
2023/11/16 01:56:11;;;;;;;3.78;2.55;;;10.40;99.90;;;;;;5114905;28;20090;-57
2023/11/16 01:58:37;;;;;;;2.17;1.63;;;10.50;99.90;;;;;;5114722;28;20031;-57
2023/11/16 02:01:04;;;;;;;2.50;1.75;;;10.40;99.90;;;;;;5115294;28;20024;-57
2023/11/16 02:03:31;;;;;;;2.50;1.80;;;10.40;99.90;;;;;;5114954;28;20055;-56
2023/11/16 02:05:58;;;;;;;2.92;1.83;;;10.40;99.90;;;;;;5114721;28;20490;-57
2023/11/16 02:08:24;;;;;;;3.58;1.98;;;10.40;99.90;;;;;;5114701;28;20108;-57
2023/11/16 02:10:51;;;;;;;2.15;1.55;;;10.50;99.90;;;;;;5078506;28;20112;-57
2023/11/16 02:13:23;;;;;;;4.90;1.95;;;10.50;99.90;;;;;;5096617;28;20423;-57
2023/11/16 02:15:49;;;;;;;4.15;2.58;;;10.50;99.90;;;;;;5114688;28;20031;-57
2023/11/16 02:18:16;;;;;;;3.08;2.72;;;10.40;99.90;;;;;;5114663;28;20032;-57
2023/11/16 02:20:46;;;;;;;6.05;3.30;;;10.50;99.90;;;;;;5114785;28;20459;-57
2023/11/16 02:23:13;;;;;;;8.25;3.78;;;10.40;99.90;;;;;;5079248;28;20517;-57
2023/11/16 02:25:43;;;;;;;5.35;2.60;;;10.40;99.90;;;;;;5114557;28;20409;-57
2023/11/16 02:28:10;;;;;;;6.35;3.13;;;;;;;;;;5113933;28;20123;-57
2023/11/16 02:30:36;;;;;;;5.70;2.75;;;;;;;;;;5114263;28;20510;-57
2023/11/16 02:33:05;;;;;;;11.63;4.70;;;9.90;99.90;;;;;;5114578;28;20023;-57
2023/11/16 02:35:32;;;;;;;9.55;3.65;;;9.70;99.90;;;;;;5113986;28;20042;-57
2023/11/16 02:37:59;;;;;;;3.60;2.15;;;9.70;99.90;;;;;;5113937;28;20023;-57
2023/11/16 02:40:26;;;;;;;3.40;1.88;;;;;;;;;;5113987;28;20038;-57
2023/11/16 02:42:53;;;;;;;3.67;2.10;;;;;;;;;;5114352;28;20107;-57
2023/11/16 02:45:22;;;;;;;3.60;1.65;;;;;;;;;;5113810;28;20046;-57
2023/11/16 02:47:52;;;;;;;4.80;2.20;;;8.70;99.90;;;;;;5113969;28;20032;-57
2023/11/16 02:50:20;;;;;;;3.58;1.90;;;;;;;;;;5113872;28;20433;-57
2023/11/16 02:52:46;;;;;;;4.03;1.95;;;;;;;;;;5114050;28;20471;-57
2023/11/16 02:55:12;;;;;;;3.15;1.80;;;8.70;99.90;;;;;;5113777;28;20032;-57
2023/11/16 02:57:41;;;;;;;2.58;1.80;;;8.50;99.90;;;;;;5113706;28;20034;-57
2023/11/16 03:00:12;;;;;;;17.55;5.60;;;8.50;99.90;;;;;;5114081;28;20031;-57
2023/11/16 03:02:42;;;;;;;12.45;3.92;;;8.50;99.90;;;;;;5070253;28;20070;-57
2023/11/16 03:05:12;;;;;;;16.60;5.60;;;8.60;99.90;;;;;;5070374;28;20083;-57
2023/11/16 03:07:39;;;;;;;12.40;4.85;;;;;;;;;;5070320;28;20045;-57
2023/11/16 03:10:08;;;;;;;5.53;2.53;;;;;;;;;;5036819;28;20036;-57
2023/11/16 03:12:36;;;;;;;2.50;1.70;;;9.00;99.90;;;;;;5053631;28;20044;-57
2023/11/16 03:15:05;;;;;;;3.38;2.17;;;9.30;99.90;;;;;;5070223;28;20124;-57
2023/11/16 03:17:32;;;;;;;3.38;2.03;;;9.40;99.90;;;;;;5053778;28;20040;-57
2023/11/16 03:19:58;;;;;;;4.22;2.28;;;9.50;99.90;;;;;;5069537;28;20044;-57
2023/11/16 03:22:25;;;;;;;4.15;2.20;;;9.60;99.90;;;;;;5061194;28;20067;-57
2023/11/16 03:24:52;;;;;;;4.57;2.58;;;9.70;99.90;;;;;;5050237;28;20111;-57
2023/11/16 03:27:18;;;;;;;6.95;3.65;;;9.90;99.90;;;;;;5049933;28;20040;-57
2023/11/16 03:29:44;;;;;;;6.70;3.17;;;9.80;99.90;;;;;;5050107;28;20033;-57
2023/11/16 03:32:10;;;;;;;6.50;3.17;;;9.90;99.90;;;;;;5050050;28;20039;-57
2023/11/16 03:34:36;;;;;;;6.45;3.88;;;10.20;99.90;;;;;;5050045;28;20116;-57
2023/11/16 03:37:03;;;;;;;3.70;2.65;;;10.00;99.90;;;;;;5050010;28;20029;-57
2023/11/16 03:39:30;;;;;;;3.40;1.98;;;9.80;99.90;;;;;;5061730;28;20097;-57
2023/11/16 03:41:58;;;;;;;5.22;3.08;;;9.60;99.90;;;;;;5106973;28;20051;-57
2023/11/16 03:44:24;;;;;;;3.25;2.13;;;9.80;99.90;;;;;;5112598;28;20656;-57
2023/11/16 03:46:50;;;;;;;3.05;2.38;;;9.80;99.90;;;;;;5112988;28;20034;-57
2023/11/16 03:49:17;;;;;;;3.33;2.05;;;9.90;99.90;;;;;;5113055;28;20023;-57
2023/11/16 03:51:43;;;;;;;3.20;2.20;;;9.80;99.90;;;;;;5112963;28;20106;-57
2023/11/16 03:54:08;;;;;;;4.45;2.67;;;9.80;99.90;;;;;;5112961;28;20729;-57
2023/11/16 03:56:34;;;;;;;5.03;3.00;;;9.90;99.90;;;;;;5076664;28;20062;-57
2023/11/16 03:59:00;;;;;;;6.88;3.70;;;;;;;;;;5113004;28;20028;-57
2023/11/16 04:01:26;;;;;;;3.97;2.85;;;10.00;99.90;;;;;;5112354;28;20121;-57
2023/11/16 04:03:52;;;;;;;3.63;2.42;;;10.00;99.90;;;;;;5112543;28;20183;-57
2023/11/16 04:06:19;;;;;;;4.85;3.00;;;;;;;;;;5112652;28;20372;-58
2023/11/16 04:08:46;;;;;;;4.20;2.33;;;10.00;99.90;;;;;;5112420;28;20420;-57
2023/11/16 04:11:13;;;;;;;4.68;3.15;;;10.10;99.90;;;;;;5112505;28;20028;-57
2023/11/16 04:13:38;;;;;;;35.33;16.83;;;10.10;99.90;;;;;;5112231;28;21467;-57
2023/11/16 04:16:14;;;;;;;7.38;4.65;;;10.00;99.90;;;;;;5112454;28;20073;-57
2023/11/16 04:18:40;;;;;;;6.47;3.80;;;9.70;99.90;;;;;;5079616;28;20036;-57
2023/11/16 04:21:07;;;;;;;5.07;3.35;;;;;;;;;;5076471;28;20047;-57
2023/11/16 04:23:35;;;;;;;4.57;2.53;;;;;;;;;;5076241;28;20035;-57
2023/11/16 04:26:01;;;;;;;3.10;2.25;;;;;;;;;;5112324;28;20117;-56
2023/11/16 04:28:29;;;;;;;4.28;1.90;;;8.50;99.90;;;;;;5042777;28;20035;-57
2023/11/16 04:30:55;;;;;;;3.95;2.17;;;8.50;99.90;;;;;;5112302;28;20519;-57
2023/11/16 04:33:21;;;;;;;3.58;2.10;;;8.50;99.90;;;;;;5112430;28;20102;-57
2023/11/16 04:35:47;;;;;;;3.95;2.95;;;8.80;99.90;;;;;;5112124;28;20471;-57
2023/11/16 04:38:14;;;;;;;4.75;3.40;;;8.80;99.90;;;;;;5112680;28;20370;-57
2023/11/16 04:40:40;;;;;;;6.90;4.70;;;8.90;99.90;;;;;;5107628;28;20055;-57
2023/11/16 04:43:06;;;;;;;6.28;4.18;;;;;;;;;;5091747;28;20499;-56
2023/11/16 04:45:32;;;;;;;8.18;4.63;;;;;;;;;;5091602;28;20104;-57
2023/11/16 04:47:59;;;;;;;8.55;5.10;;;9.10;99.90;;;;;;5091826;28;20051;-56
2023/11/16 04:50:27;;;;;;;6.57;4.43;;;9.20;99.90;;;;;;5091716;28;20038;-57
2023/11/16 04:52:54;;;;;;;8.60;5.32;;;9.20;99.90;;;;;;5060318;28;20051;-57
2023/11/16 04:55:20;;;;;;;8.00;5.38;;;;;;;;;;5095855;28;20256;-56
2023/11/16 04:57:46;;;;;;;7.03;4.43;;;9.10;99.90;;;;;;5095573;28;20643;-56
2023/11/16 05:00:13;;;;;;;17.65;9.70;;;8.90;99.90;;;;;;5095691;28;20131;-56
2023/11/16 05:02:39;;;;;;;20.08;14.52;;;9.00;99.90;;;;;;5095668;28;20024;-57
2023/11/16 05:05:06;;;;;;;10.90;7.00;;;9.10;99.90;;;;;;5059657;28;20085;-56
2023/11/16 05:07:32;;;;;;;70.15;49.35;;;9.00;99.90;;;;;;5095265;28;20039;-57
2023/11/16 05:09:58;;;;;;;6.90;4.30;;;8.70;99.90;;;;;;5076422;28;20032;-56
2023/11/16 05:12:28;;;;;;;7.00;5.28;;;8.70;99.90;;;;;;5095510;28;20028;-56
2023/11/16 05:14:55;;;;;;;17.75;12.30;;;8.80;99.90;;;;;;5095340;28;20020;-57
2023/11/16 05:17:21;;;;;;;24.58;16.40;;;8.50;99.90;;;;;;5078385;28;20544;-57
2023/11/16 05:19:47;;;;;;;28.20;17.90;;;8.50;99.90;;;;;;5075061;28;20025;-56
2023/11/16 05:22:13;;;;;;;25.65;16.73;;;8.70;99.90;;;;;;5074961;28;20032;-56
2023/11/16 05:24:39;;;;;;;20.98;15.88;;;8.90;99.90;;;;;;5074656;28;20036;-57
2023/11/16 05:27:05;;;;;;;18.33;16.02;;;9.00;99.90;;;;;;5074794;28;20032;-57
2023/11/16 05:29:32;;;;;;;19.83;15.15;;;9.00;99.90;;;;;;5063159;28;20138;-56
2023/11/16 05:31:58;;;;;;;19.00;14.18;;;9.10;99.90;;;;;;5026432;28;20040;-56
2023/11/16 05:34:24;;;;;;;19.13;14.52;;;9.20;99.90;;;;;;5074949;28;20107;-56
2023/11/16 05:36:51;;;;;;;17.13;12.57;;;9.30;99.90;;;;;;5074558;28;20436;-56
2023/11/16 05:39:19;;;;;;;22.77;14.25;;;9.30;99.90;;;;;;5074532;28;20040;-57
2023/11/16 05:41:46;;;;;;;34.75;25.75;;;9.40;99.90;;;;;;5101853;28;20063;-56
2023/11/16 05:44:15;;;;;;;38.63;28.77;;;9.30;99.90;;;;;;5115152;28;20043;-56
2023/11/16 05:46:43;;;;;;;24.88;16.83;;;9.30;99.90;;;;;;5115291;28;20401;-57
2023/11/16 05:49:09;;;;;;;20.55;14.82;;;9.00;99.90;;;;;;5115208;28;20463;-56
2023/11/16 05:51:38;;;;;;;27.40;20.90;;;9.00;99.90;;;;;;5079249;28;20039;-56
2023/11/16 05:54:08;;;;;;;29.75;26.52;;;9.20;99.90;;;;;;5093573;28;20130;-56
2023/11/16 05:56:40;;;;;;;33.00;25.80;;;9.30;99.90;;;;;;5100504;28;20031;-57
2023/11/16 05:59:10;;;;;;;49.75;44.63;;;9.40;99.90;;;;;;5108953;28;20115;-56
2023/11/16 06:01:37;;;;;;;47.85;32.25;;;9.50;99.90;;;;;;5114997;28;21018;-55
2023/11/16 06:04:05;;;;;;;38.97;32.70;;;9.60;99.90;;;;;;5100408;28;20123;-56
2023/11/16 06:06:31;;;;;;;36.10;29.58;;;9.70;99.90;;;;;;5051244;28;20051;-57
2023/11/16 06:08:57;;;;;;;30.88;25.60;;;9.70;99.90;;;;;;5083917;28;20028;-56
2023/11/16 06:11:23;;;;;;;30.27;23.33;;;9.50;99.90;;;;;;5082715;28;20055;-57
2023/11/16 06:13:50;;;;;;;36.85;27.25;;;;;;;;;;5084376;28;20056;-57
2023/11/16 06:16:16;;;;;;;39.70;26.73;;;;;;;;;;5079039;28;20028;-57
2023/11/16 06:18:42;;;;;;;51.13;30.50;;;15.60;99.90;;;;;;5088760;28;20028;-56
2023/11/16 06:21:09;;;;;;;79.50;40.75;;;17.50;99.90;;;;;;5090055;28;20020;-56
2023/11/16 06:23:36;;;;;;;85.47;43.67;;;;;;;;;;5073729;28;20524;-55
2023/11/16 06:26:02;;;;;;;63.78;36.15;;;19.40;99.90;;;;;;5073670;28;20032;-62
2023/11/16 06:28:30;;;;;;;55.58;32.22;;;;;;;;;;5081646;28;20374;-57
2023/11/16 06:30:56;;;;;;;44.20;29.60;;;;;;;;;;5058105;28;20085;-59
2023/11/16 06:33:23;;;;;;;36.42;22.60;;;;;;;;;;5093774;28;20032;-56
2023/11/16 06:35:49;;;;;;;36.78;25.02;;;;;;;;;;5093745;28;20487;-55
2023/11/16 06:38:16;;;;;;;30.02;22.17;;;;;;;;;;5093521;28;20032;-54
2023/11/16 06:40:42;;;;;;;27.75;21.08;;;;;;;;;;5097871;28;20055;-55
2023/11/16 06:43:10;;;;;;;20.73;16.98;;;;;;;;;;5113841;28;20023;-55
2023/11/16 06:45:40;;;;;;;17.58;14.50;;;;;;;;;;5114197;28;20042;-54
2023/11/16 06:48:06;;;;;;;31.55;22.55;;;27.00;87.60;;;;;;5113969;28;20034;-54
2023/11/16 06:50:34;;;;;;;26.73;21.13;;;;;;;;;;5114005;28;20024;-54
2023/11/16 06:53:05;;;;;;;25.00;19.80;;;27.90;94.90;;;;;;5113717;28;20027;-55
2023/11/16 06:55:32;;;;;;;21.10;16.00;;;;;;;;;;5113810;28;20036;-54
2023/11/16 06:57:58;;;;;;;19.15;15.82;;;;;;;;;;5113729;28;20110;-54
2023/11/16 07:00:26;;;;;;;19.20;16.80;;;;;;;;;;5113749;28;20027;-54
2023/11/16 07:02:52;;;;;;;16.15;14.00;;;28.50;99.90;;;;;;5113712;28;20478;-54
2023/11/16 07:05:19;;;;;;;17.83;15.95;;;;;;;;;;5077444;28;20043;-55
2023/11/16 07:07:45;;;;;;;16.08;14.38;;;29.20;90.20;;;;;;5113630;28;20066;-54
2023/11/16 07:10:12;;;;;;;13.13;11.73;;;;;;;;;;5113732;28;20104;-54
2023/11/16 07:12:41;;;;;;;11.57;10.18;;;30.50;97.50;;;;;;5113397;28;20576;-54
2023/11/16 07:15:08;;;;;;;12.68;10.40;;;;;;;;;;5113289;28;20639;-54
2023/11/16 07:17:34;;;;;;;11.75;8.55;;;;;;;;;;5113271;28;20016;-54
2023/11/16 07:20:00;;;;;;;10.13;8.30;;;;;;;;;;5113220;28;20035;-55
2023/11/16 07:22:29;;;;;;;7.63;6.82;;;;;;;;;;5113340;28;20099;-54
2023/11/16 07:24:56;;;;;;;7.55;6.78;;;31.90;76.10;;;;;;5113210;28;20035;-56
2023/11/16 07:27:22;;;;;;;9.48;6.68;;;32.40;76.30;;;;;;5113092;28;20051;-55
2023/11/16 07:29:48;;;;;;;9.00;8.10;;;;;;;;;;5113220;28;20039;-55
2023/11/16 07:32:15;;;;;;;8.60;6.43;;;;;;;;;;5113367;28;20030;-56
2023/11/16 07:34:43;;;;;;;7.40;6.22;;;34.20;73.80;;;;;;5113095;28;20128;-56
2023/11/16 07:37:11;;;;;;;8.55;7.75;;;;;;;;;;5112511;28;20382;-61
2023/11/16 07:39:37;;;;;;;37.55;35.53;;;;;;;;;;5113094;28;20466;-61
2023/11/16 07:42:03;;;;;;;14.55;13.63;;;34.90;89.60;;;;;;5112353;28;20043;-60
2023/11/16 07:44:29;;;;;;;6.88;6.13;;;;;;;;;;5112748;28;20063;-56
2023/11/16 07:46:55;;;;;;;16.75;15.63;;;;;;;;;;5112926;28;20095;-54
2023/11/16 07:49:22;;;;;;;14.25;13.25;;;;;;;;;;5112707;28;20033;-54
2023/11/16 07:51:50;;;;;;;11.07;10.18;;;;;;;;;;5077175;28;20093;-55
2023/11/16 07:54:17;;;;;;;9.27;8.38;;;35.70;70.40;;;;;;5076449;28;20035;-55
2023/11/16 07:56:52;;;;;;;7.85;6.93;;;35.20;70.30;;;;;;5112574;28;20037;-55
2023/11/16 07:59:18;;;;;;;12.93;12.02;;;;;;;;;;5112863;28;20082;-55
2023/11/16 08:01:55;;;;;;;7.20;6.50;;;35.60;69.70;;;;;;5112447;28;20031;-57
2023/11/16 08:04:23;;;;;;;8.07;7.25;;;35.50;75.60;;;;;;5112313;28;20039;-56
2023/11/16 08:06:51;;;;;;;6.75;4.80;;;;;;;;;;5112967;28;20100;-57
2023/11/16 08:09:19;;;;;;;7.82;7.07;;;33.30;68.80;;;;;;5112911;28;20028;-55
2023/11/16 08:11:45;;;;;;;5.40;4.88;;;;;;;;;;5111476;28;20475;-60
2023/11/16 08:14:12;;;;;;;7.38;6.13;;;31.60;77.50;;;;;;5112360;28;20024;-54
2023/11/16 08:16:38;;;;;;;7.00;5.32;;;;;;;;;;5112394;28;20154;-54
2023/11/16 08:19:04;;;;;;;5.75;5.15;;;;;;;;;;5093424;28;20032;-55
2023/11/16 08:21:30;;;;;;;8.82;6.20;;;;;;;;;;5112105;28;20031;-55
2023/11/16 08:23:57;;;;;;;7.30;6.53;;;;;;;;;;5112418;28;20043;-55
2023/11/16 08:26:23;;;;;;;13.95;12.23;;;;;;;;;;5111687;28;20028;-55
2023/11/16 08:28:50;;;;;;;12.15;10.90;;;;;;;;;;5112720;28;20051;-54
2023/11/16 08:31:17;;;;;;;11.10;9.95;;;;;;;;;;5112179;28;20030;-56
2023/11/16 08:33:44;;;;;;;24.10;15.27;;;;;;;;;;5112228;28;20031;-54
2023/11/16 08:36:11;;;;;;;24.70;18.75;;;31.60;87.30;;;;;;5112332;28;20023;-54
2023/11/16 08:38:42;;;;;;;16.77;14.57;;;;;;;;;;5108960;28;20027;-55
2023/11/16 08:41:16;;;;;;;17.30;9.55;;;;;;;;;;5075994;28;20055;-55
2023/11/16 08:43:43;;;;;;;9.13;8.15;;;33.70;83.70;;;;;;5112089;28;20034;-55
2023/11/16 08:46:10;;;;;;;9.25;8.35;;;32.60;72.90;;;;;;5112459;28;20099;-55
2023/11/16 08:48:36;;;;;;;8.65;7.82;;;31.60;73.00;;;;;;5111799;28;20035;-55
2023/11/16 08:51:06;;;;;;;9.45;8.55;;;32.30;73.20;;;;;;5112075;28;20035;-54
2023/11/16 08:53:35;;;;;;;9.75;8.70;;;;;;;;;;5111899;28;20033;-56
2023/11/16 08:56:05;;;;;;;7.82;7.03;;;;;;;;;;5112238;28;20034;-55
2023/11/16 08:58:36;;;;;;;8.68;7.78;;;;;;;;;;5111851;28;20434;-54
2023/11/16 09:01:05;;;;;;;13.88;8.10;;;32.60;72.00;;;;;;5112143;28;20055;-55
2023/11/16 09:03:33;;;;;;;13.20;12.00;;;33.00;78.70;;;;;;5111757;28;20059;-55
2023/11/16 09:06:02;;;;;;;11.10;10.13;;;33.30;71.90;;;;;;5111614;28;20462;-54
2023/11/16 09:08:29;;;;;;;11.10;9.82;;;;;;;;;;5111890;28;20043;-53
2023/11/16 09:10:55;;;;;;;8.75;5.95;;;33.40;92.60;;;;;;5111860;28;20382;-53
2023/11/16 09:13:22;;;;;;;6.95;6.25;;;33.60;84.70;;;;;;5111942;28;20031;-54
2023/11/16 09:15:49;;;;;;;8.45;6.90;;;33.20;83.90;;;;;;5112256;28;20019;-56
2023/11/16 09:18:15;;;;;;;9.40;7.03;;;33.20;84.90;;;;;;5111663;28;20160;-57
2023/11/16 09:20:46;;;;;;;10.65;8.05;;;33.30;84.90;;;;;;5075788;28;20096;-54
2023/11/16 09:23:15;;;;;;;10.07;7.60;;;33.40;85.40;;;;;;5111978;28;20035;-54
2023/11/16 09:25:41;;;;;;;14.07;12.63;;;33.40;86.40;;;;;;5111949;28;20027;-53
2023/11/16 09:28:09;;;;;;;8.45;7.55;;;33.40;92.40;;;;;;5111633;28;20031;-54
2023/11/16 09:30:38;;;;;;;14.80;12.23;;;33.30;90.90;;;;;;5111628;28;20047;-53
2023/11/16 09:33:06;;;;;;;12.95;11.30;;;33.00;90.40;;;;;;5111640;28;20024;-56
2023/11/16 09:35:31;;;;;;;15.10;13.10;;;33.30;90.00;;;;;;5111662;28;20040;-56
2023/11/16 09:37:57;;;;;;;5.82;5.22;;;33.40;88.20;;;;;;5075724;28;20451;-54
2023/11/16 09:40:28;;;;;;;11.23;7.65;;;32.10;78.60;;;;;;5079013;28;20042;-54
2023/11/16 09:43:00;;;;;;;26.67;14.75;;;32.50;77.90;;;;;;5115356;28;20435;-55
2023/11/16 09:45:31;;;;;;;15.55;8.80;;;32.60;77.80;;;;;;5114828;28;20059;-54
2023/11/16 09:48:01;;;;;;;;;;;32.60;80.20;;;;;;5097306;28;20114;-56
2023/11/16 09:50:28;;;;;;;11.90;7.90;;;33.00;76.80;;;;;;5078671;28;19953;-54
2023/11/16 09:52:58;;;;;;;8.75;6.70;;;33.00;75.60;;;;;;5038172;28;20052;-53
2023/11/16 09:55:30;;;;;;;9.65;6.85;;;33.30;75.20;;;;;;5071939;28;20115;-55
2023/11/16 09:58:08;;;;;;;18.40;14.75;;;33.00;75.00;;;;;;5071925;28;20041;-55
2023/11/16 10:00:34;;;;;;;9.60;5.43;;;32.90;75.30;;;;;;5071836;28;20440;-54
2023/11/16 10:03:00;;;;;;;8.45;5.30;;;33.10;74.10;;;;;;5071795;28;20041;-55
2023/11/16 10:05:30;;;;;;;5.13;4.50;;;33.30;74.10;;;;;;5071808;28;20041;-54
2023/11/16 10:07:58;;;;;;;8.18;5.43;;;33.00;73.40;;;;;;5071767;28;20456;-55
2023/11/16 10:10:29;;;;;;;15.88;9.23;;;33.00;74.20;;;;;;5071677;28;20036;-54
2023/11/16 10:12:56;;;;;;;8.48;4.10;;;33.40;72.50;;;;;;5071639;28;20041;-55
2023/11/16 10:15:23;;;;;;;6.75;3.75;;;33.00;74.70;;;;;;5071627;28;20032;-53
2023/11/16 10:17:49;;;;;;;7.18;4.72;;;33.20;85.00;;;;;;5071554;28;20614;-53
2023/11/16 10:20:20;;;;;;;8.23;7.18;;;33.00;84.10;;;;;;5069727;28;20071;-54
2023/11/16 10:22:47;;;;;;;6.18;4.50;;;32.50;71.20;;;;;;5072851;28;20036;-51
2023/11/16 10:25:14;;;;;;;7.85;5.20;;;32.20;68.70;;;;;;5114421;28;20390;-52
2023/11/16 10:27:41;;;;;;;4.35;3.95;;;32.50;69.20;;;;;;5114267;28;20047;-51
2023/11/16 10:30:15;;;;;;;5.30;4.80;;;31.40;72.10;;;;;;5114515;28;20055;-52
2023/11/16 10:32:42;;;;;;;4.00;3.60;;;31.40;70.50;;;;;;5064761;28;20093;-52
2023/11/16 10:35:13;;;;;;;4.13;3.45;;;;;;;;;;5061503;28;20531;-52
2023/11/16 10:37:42;;;;;;;4.88;3.22;;;30.80;69.30;;;;;;5094924;28;20039;-50
2023/11/16 10:40:10;;;;;;;3.38;2.85;;;;;;;;;;5114224;28;20040;-51
2023/11/16 10:42:43;;;;;;;4.28;3.72;;;30.80;78.10;;;;;;5044206;28;20090;-51
2023/11/16 10:45:09;;;;;;;4.07;2.80;;;;;;;;;;5093864;28;20082;-57
2023/11/16 10:47:37;;;;;;;4.05;3.35;;;;;;;;;;5093362;28;20028;-53
2023/11/16 10:50:03;;;;;;;2.72;2.40;;;29.10;77.50;;;;;;5093007;28;20497;-53
2023/11/16 10:52:32;;;;;;;3.40;3.10;;;29.80;91.00;;;;;;5041192;28;20044;-52
2023/11/16 10:55:04;;;;;;;2.58;2.22;;;29.50;88.10;;;;;;5093608;28;20040;-52
2023/11/16 10:57:31;;;;;;;2.25;2.05;;;29.30;89.00;;;;;;5093442;28;20467;-53
2023/11/16 11:00:00;;;;;;;3.28;2.22;;;;;;;;;;5040916;28;20048;-53
2023/11/16 11:02:27;;;;;;;4.18;3.30;;;28.40;68.90;;;;;;5092857;28;20563;-52
2023/11/16 11:04:53;;;;;;;3.10;2.60;;;28.90;70.10;;;;;;5093098;28;20077;-52
2023/11/16 11:07:19;;;;;;;1.55;1.45;;;;;;;;;;5093148;28;20035;-54
2023/11/16 11:09:48;;;;;;;1.67;1.55;;;;;;;;;;5093141;28;20039;-53
2023/11/16 11:12:15;;;;;;;1.73;1.63;;;;;;;;;;5057320;28;20047;-54
2023/11/16 11:14:48;;;;;;;2.63;1.73;;;26.50;83.20;;;;;;5093100;28;20020;-54
2023/11/16 11:17:18;;;;;;;3.03;2.00;;;;;;;;;;5093120;28;20028;-54
2023/11/16 11:19:59;;;;;;;2.10;1.90;;;25.30;71.50;;;;;;5092908;28;20032;-55
2023/11/16 11:22:31;;;;;;;2.42;2.15;;;25.80;72.10;;;;;;5093086;28;20031;-53
2023/11/16 11:24:58;;;;;;;2.13;1.92;;;25.30;72.30;;;;;;5092971;28;20395;-54
2023/11/16 11:27:28;;;;;;;2.63;2.00;;;25.80;71.90;;;;;;5092792;28;20580;-54
2023/11/16 11:29:56;;;;;;;2.38;1.70;;;;;;;;;;5092812;28;20069;-54
2023/11/16 11:32:29;;;;;;;1.70;1.60;;;;;;;;;;5091890;28;20032;-55
2023/11/16 11:34:57;;;;;;;1.85;1.70;;;25.20;71.70;;;;;;5040085;28;20391;-53
2023/11/16 11:37:37;;;;;;;1.60;1.50;;;26.10;72.50;;;;;;5092935;28;20081;-55
2023/11/16 11:40:08;;;;;;;1.50;1.40;;;25.80;72.40;;;;;;5092954;28;20123;-54
2023/11/16 11:42:44;;;;;;;1.45;1.35;;;25.40;71.90;;;;;;5110262;28;20055;-54
2023/11/16 11:45:12;;;;;;;7.88;5.88;;;;;;;;;;5112917;28;20391;-55
2023/11/16 11:47:39;;;;;;;6.80;5.03;;;25.20;72.50;;;;;;5113067;28;20031;-55
2023/11/16 11:50:07;;;;;;;2.45;1.70;;;;;;;;;;5076403;28;20114;-55
2023/11/16 11:52:35;;;;;;;25.42;17.10;;;24.70;72.10;;;;;;5112628;28;20423;-55
2023/11/16 11:55:00;;;;;;;10.55;7.28;;;24.60;73.60;;;;;;5112855;28;20072;-55
2023/11/16 11:57:27;;;;;;;5.55;3.63;;;24.20;74.20;;;;;;5112757;28;20027;-54
2023/11/16 11:59:52;;;;;;;4.10;2.55;;;23.50;74.20;;;;;;5112742;28;20024;-54
2023/11/16 12:02:19;;;;;;;1.70;1.20;;;;;;;;;;5111873;28;20028;-54
2023/11/16 12:04:45;;;;;;;5.80;5.32;;;22.30;75.10;;;;;;5112680;28;20382;-54
2023/11/16 12:07:12;;;;;;;1.27;0.80;;;22.20;75.50;;;;;;5112419;28;20023;-52
2023/11/16 12:09:40;;;;;;;4.70;3.97;;;;;;;;;;5112559;28;20059;-55
2023/11/16 12:12:08;;;;;;;50.55;25.35;;;22.50;75.60;;;;;;5112343;28;20470;-54
2023/11/16 12:14:37;;;;;;;18.00;10.02;;;21.20;75.30;;;;;;5112564;28;20114;-53
2023/11/16 12:17:04;;;;;;;1.55;1.10;;;21.70;76.60;;;;;;5112349;28;20542;-54
2023/11/16 12:19:35;;;;;;;2.53;1.60;;;21.80;76.70;;;;;;5112515;28;20031;-54
2023/11/16 12:22:08;;;;;;;4.93;3.47;;;22.20;77.00;;;;;;5112345;28;20050;-54
2023/11/16 12:24:34;;;;;;;4.45;2.65;;;21.80;77.20;;;;;;5112400;28;20440;-53
2023/11/16 12:27:00;;;;;;;7.55;5.32;;;21.50;77.30;;;;;;5112265;28;20035;-53
2023/11/16 12:29:30;;;;;;;4.28;2.42;;;21.50;77.30;;;;;;5076332;28;20032;-53
2023/11/16 12:31:56;;;;;;;2.67;1.60;;;;;;;;;;5112611;28;20070;-53
2023/11/16 12:34:26;;;;;;;3.55;2.17;;;21.50;77.50;;;;;;5112514;28;20032;-53
2023/11/16 12:36:58;;;;;;;2.22;1.25;;;;;;;;;;5112263;28;20031;-54
2023/11/16 12:39:25;;;;;;;;;;;20.80;78.60;;;;;;5112567;28;20441;-55
2023/11/16 12:41:55;;;;;;;2.08;0.90;;;20.70;78.60;;;;;;5112137;28;20006;-53
2023/11/16 12:44:25;;;;;;;1.10;0.70;;;;;;;;;;5111928;28;20035;-53
2023/11/16 12:46:51;;;;;;;0.90;0.82;;;;;;;;;;5112524;28;20066;-55
2023/11/16 12:49:18;;;;;;;1.92;1.55;;;;;;;;;;5112006;28;20453;-55
2023/11/16 12:51:44;;;;;;;0.85;0.70;;;;;;;;;;5112403;28;20028;-54
2023/11/16 12:54:10;;;;;;;3.78;1.00;;;;;;;;;;5112230;28;20036;-55
2023/11/16 12:56:37;;;;;;;1.30;0.82;;;;;;;;;;5092709;28;20479;-53
2023/11/16 12:59:06;;;;;;;1.75;1.10;;;20.50;92.60;;;;;;5112152;28;20016;-55
2023/11/16 13:01:33;;;;;;;1.73;1.10;;;20.70;92.50;;;;;;5075881;28;20497;-53
2023/11/16 13:03:59;;;;;;;1.30;1.00;;;;;;;;;;5111964;28;20067;-53
2023/11/16 13:06:25;;;;;;;2.75;2.38;;;19.80;79.30;;;;;;5112024;28;20051;-54
2023/11/16 13:08:51;;;;;;;3.72;1.00;;;19.90;80.60;;;;;;5093639;28;20386;-54
2023/11/16 13:11:18;;;;;;;2.97;2.55;;;19.80;80.40;;;;;;5111817;28;20039;-54
2023/11/16 13:13:44;;;;;;;1.70;0.98;;;19.90;80.30;;;;;;5114961;28;20032;-54
2023/11/16 13:16:12;;;;;;;4.05;1.25;;;19.80;80.50;;;;;;5115823;28;20386;-53
2023/11/16 13:18:38;;;;;;;1.50;0.77;;;19.80;80.10;;;;;;5115751;28;20031;-54
2023/11/16 13:21:09;;;;;;;5.20;1.40;;;19.50;83.30;;;;;;5097674;28;20031;-54
2023/11/16 13:23:46;;;;;;;1.05;0.60;;;;;;;;;;5080928;28;20047;-56
2023/11/16 13:26:14;;;;;;;0.95;0.70;;;19.50;79.60;;;;;;5115880;28;20390;-55
2023/11/16 13:28:40;;;;;;;1.23;0.80;;;;;;;;;;5115733;28;20034;-55
2023/11/16 13:31:06;;;;;;;1.40;1.20;;;;;;;;;;5115504;28;20027;-54
2023/11/16 13:33:33;;;;;;;1.92;1.17;;;;;;;;;;5115782;28;20433;-54
2023/11/16 13:35:59;;;;;;;2.30;1.60;;;;;;;;;;5096245;28;20067;-56
2023/11/16 13:38:27;;;;;;;2.50;1.75;;;19.30;98.10;;;;;;5115403;28;20027;-57